sensor_id;sensor_type;location;lat;lon;timestamp;pressure;altitude;pressure_sealevel;temperature;humidity
5679;BME280;2862;52.560;13.566;2023-03-26T00:03:49;99300.56;;;8.51;95.67
5679;BME280;2862;52.560;13.566;2023-03-26T00:13:56;99322.56;;;8.54;95.94
5679;BME280;2862;52.560;13.566;2023-03-26T00:24:01;99326.75;;;8.56;96.04
5679;BME280;2862;52.560;13.566;2023-03-26T00:34:07;99317.00;;;8.47;95.37
5679;BME280;2862;52.560;13.566;2023-03-26T00:44:11;99319.88;;;8.54;94.43
5679;BME280;2862;52.560;13.566;2023-03-26T00:54:16;99318.97;;;8.45;94.20
5679;BME280;2862;52.560;13.566;2023-03-26T01:04:23;99318.78;;;8.56;92.29
5679;BME280;2862;52.560;13.566;2023-03-26T01:14:31;99313.81;;;8.43;91.65
5679;BME280;2862;52.560;13.566;2023-03-26T01:24:35;99331.31;;;8.46;91.85
5679;BME280;2862;52.560;13.566;2023-03-26T01:34:47;99327.66;;;8.47;91.97
5679;BME280;2862;52.560;13.566;2023-03-26T01:44:58;99347.88;;;8.30;94.54
5679;BME280;2862;52.560;13.566;2023-03-26T01:55:05;99342.56;;;8.30;95.00
5679;BME280;2862;52.560;13.566;2023-03-26T02:05:17;99337.97;;;8.22;94.61
5679;BME280;2862;52.560;13.566;2023-03-26T02:15:22;99344.03;;;8.15;94.33
5679;BME280;2862;52.560;13.566;2023-03-26T02:25:26;99339.50;;;8.25;93.07
5679;BME280;2862;52.560;13.566;2023-03-26T02:35:31;99350.38;;;8.04;94.56
5679;BME280;2862;52.560;13.566;2023-03-26T02:45:37;99355.72;;;7.94;96.24
5679;BME280;2862;52.560;13.566;2023-03-26T02:55:41;99367.78;;;7.89;97.14
5679;BME280;2862;52.560;13.566;2023-03-26T03:05:46;99367.59;;;8.10;96.82
5679;BME280;2862;52.560;13.566;2023-03-26T03:15:58;99378.81;;;8.04;96.11
5679;BME280;2862;52.560;13.566;2023-03-26T03:26:03;99383.03;;;7.96;96.64
5679;BME280;2862;52.560;13.566;2023-03-26T03:36:08;99373.50;;;8.04;95.73
5679;BME280;2862;52.560;13.566;2023-03-26T03:46:14;99390.00;;;8.07;95.19
5679;BME280;2862;52.560;13.566;2023-03-26T03:56:22;99398.00;;;8.07;95.23
5679;BME280;2862;52.560;13.566;2023-03-26T04:06:57;99391.41;;;8.11;95.12
5679;BME280;2862;52.560;13.566;2023-03-26T04:17:08;99398.66;;;8.19;95.52
5679;BME280;2862;52.560;13.566;2023-03-26T04:27:19;99402.63;;;8.05;96.51
5679;BME280;2862;52.560;13.566;2023-03-26T04:37:29;99409.06;;;8.03;97.28
5679;BME280;2862;52.560;13.566;2023-03-26T04:48:01;99405.28;;;8.15;96.51
5679;BME280;2862;52.560;13.566;2023-03-26T04:58:05;99405.69;;;8.10;96.50
5679;BME280;2862;52.560;13.566;2023-03-26T05:08:32;99403.75;;;8.03;96.29
5679;BME280;2862;52.560;13.566;2023-03-26T05:18:36;99408.38;;;8.10;95.31
5679;BME280;2862;52.560;13.566;2023-03-26T05:28:41;99411.94;;;8.29;94.20
5679;BME280;2862;52.560;13.566;2023-03-26T05:39:07;99416.69;;;8.35;94.04
5679;BME280;2862;52.560;13.566;2023-03-26T05:49:37;99422.75;;;8.27;94.07
5679;BME280;2862;52.560;13.566;2023-03-26T05:59:41;99430.72;;;8.37;94.19
5679;BME280;2862;52.560;13.566;2023-03-26T06:10:05;99420.66;;;8.68;90.98
5679;BME280;2862;52.560;13.566;2023-03-26T06:20:10;99451.13;;;8.56;89.39
5679;BME280;2862;52.560;13.566;2023-03-26T06:30:19;99451.31;;;8.35;91.36
5679;BME280;2862;52.560;13.566;2023-03-26T06:40:40;99454.59;;;8.09;90.10
5679;BME280;2862;52.560;13.566;2023-03-26T06:51:00;99448.72;;;8.06;91.26
5679;BME280;2862;52.560;13.566;2023-03-26T07:01:21;99455.69;;;8.73;88.66
5679;BME280;2862;52.560;13.566;2023-03-26T07:11:44;99450.41;;;9.90;83.26
5679;BME280;2862;52.560;13.566;2023-03-26T07:22:00;99441.28;;;14.06;63.73
5679;BME280;2862;52.560;13.566;2023-03-26T07:32:45;99438.03;;;12.72;66.09
5679;BME280;2862;52.560;13.566;2023-03-26T07:43:18;99431.97;;;13.25;69.97
5679;BME280;2862;52.560;13.566;2023-03-26T07:53:51;99439.34;;;12.04;63.68
5679;BME280;2862;52.560;13.566;2023-03-26T08:04:32;99446.19;;;11.41;67.09
5679;BME280;2862;52.560;13.566;2023-03-26T08:15:11;99445.50;;;10.55;72.19
5679;BME280;2862;52.560;13.566;2023-03-26T08:25:24;99445.09;;;10.68;72.29
5679;BME280;2862;52.560;13.566;2023-03-26T08:35:31;99449.56;;;9.89;78.95
5679;BME280;2862;52.560;13.566;2023-03-26T08:46:00;99440.19;;;9.85;77.75
5679;BME280;2862;52.560;13.566;2023-03-26T08:56:18;99432.09;;;10.73;74.91
5679;BME280;2862;52.560;13.566;2023-03-26T09:06:51;99422.59;;;10.86;70.34
5679;BME280;2862;52.560;13.566;2023-03-26T09:17:12;99423.53;;;10.35;74.44
5679;BME280;2862;52.560;13.566;2023-03-26T09:27:34;99429.72;;;9.92;77.94
5679;BME280;2862;52.560;13.566;2023-03-26T09:37:48;99428.28;;;9.79;81.00
5679;BME280;2862;52.560;13.566;2023-03-26T09:48:33;99437.16;;;9.62;84.21
5679;BME280;2862;52.560;13.566;2023-03-26T09:59:05;99443.88;;;9.66;87.70
5679;BME280;2862;52.560;13.566;2023-03-26T10:09:24;99442.81;;;9.59;87.41
5679;BME280;2862;52.560;13.566;2023-03-26T10:19:47;99439.91;;;9.70;87.40
5679;BME280;2862;52.560;13.566;2023-03-26T10:30:05;99433.66;;;10.05;88.52
5679;BME280;2862;52.560;13.566;2023-03-26T10:40:19;99432.91;;;10.39;84.69
5679;BME280;2862;52.560;13.566;2023-03-26T10:50:28;99434.16;;;10.95;82.76
5679;BME280;2862;52.560;13.566;2023-03-26T11:00:37;99441.91;;;10.64;83.05
5679;BME280;2862;52.560;13.566;2023-03-26T11:10:49;99437.16;;;10.24;86.26
5679;BME280;2862;52.560;13.566;2023-03-26T11:21:04;99426.66;;;10.99;82.90
5679;BME280;2862;52.560;13.566;2023-03-26T11:31:15;99409.88;;;11.80;84.87
5679;BME280;2862;52.560;13.566;2023-03-26T11:41:26;99407.88;;;11.74;77.71
5679;BME280;2862;52.560;13.566;2023-03-26T11:51:45;99403.72;;;11.95;76.75
5679;BME280;2862;52.560;13.566;2023-03-26T12:01:54;99394.00;;;11.70;74.67
5679;BME280;2862;52.560;13.566;2023-03-26T12:11:59;99393.19;;;11.94;72.57
5679;BME280;2862;52.560;13.566;2023-03-26T12:22:26;99357.34;;;11.95;70.43
5679;BME280;2862;52.560;13.566;2023-03-26T12:32:31;99347.16;;;12.38;67.56
5679;BME280;2862;52.560;13.566;2023-03-26T12:42:39;99335.19;;;12.17;66.93
5679;BME280;2862;52.560;13.566;2023-03-26T12:52:55;99343.94;;;12.03;67.26
5679;BME280;2862;52.560;13.566;2023-03-26T13:03:13;99336.63;;;12.44;62.58
5679;BME280;2862;52.560;13.566;2023-03-26T13:13:38;99335.53;;;12.62;60.83
5679;BME280;2862;52.560;13.566;2023-03-26T13:23:51;99334.78;;;12.45;59.97
5679;BME280;2862;52.560;13.566;2023-03-26T13:34:00;99324.16;;;12.91;61.56
5679;BME280;2862;52.560;13.566;2023-03-26T13:44:13;99317.97;;;12.82;59.29
5679;BME280;2862;52.560;13.566;2023-03-26T13:54:27;99319.09;;;12.26;58.41
5679;BME280;2862;52.560;13.566;2023-03-26T14:04:35;99311.50;;;12.37;58.97
5679;BME280;2862;52.560;13.566;2023-03-26T14:14:45;99316.41;;;12.65;59.02
5679;BME280;2862;52.560;13.566;2023-03-26T14:25:03;99327.56;;;12.76;57.44
5679;BME280;2862;52.560;13.566;2023-03-26T14:35:27;99323.53;;;12.41;57.16
5679;BME280;2862;52.560;13.566;2023-03-26T14:56:12;99303.44;;;12.76;55.69
5679;BME280;2862;52.560;13.566;2023-03-26T15:06:45;99308.94;;;12.44;56.32
5679;BME280;2862;52.560;13.566;2023-03-26T15:17:25;99298.59;;;12.41;57.26
5679;BME280;2862;52.560;13.566;2023-03-26T15:27:49;99291.34;;;12.02;58.85
5679;BME280;2862;52.560;13.566;2023-03-26T15:38:22;99299.63;;;11.76;59.81
5679;BME280;2862;52.560;13.566;2023-03-26T15:48:37;99304.50;;;11.48;60.83
5679;BME280;2862;52.560;13.566;2023-03-26T15:58:51;99297.97;;;11.34;61.00
5679;BME280;2862;52.560;13.566;2023-03-26T16:09:24;99296.97;;;11.03;60.88
5679;BME280;2862;52.560;13.566;2023-03-26T16:19:49;99297.44;;;10.98;61.87
5679;BME280;2862;52.560;13.566;2023-03-26T16:30:28;99299.59;;;10.86;62.78
5679;BME280;2862;52.560;13.566;2023-03-26T16:40:32;99313.59;;;10.72;63.55
5679;BME280;2862;52.560;13.566;2023-03-26T16:50:43;99323.09;;;10.58;64.82
5679;BME280;2862;52.560;13.566;2023-03-26T17:00:50;99327.34;;;10.35;65.56
5679;BME280;2862;52.560;13.566;2023-03-26T17:11:06;99335.22;;;10.10;65.07
5679;BME280;2862;52.560;13.566;2023-03-26T17:21:15;99340.50;;;10.02;65.41
5679;BME280;2862;52.560;13.566;2023-03-26T17:31:26;99345.28;;;9.91;66.17
5679;BME280;2862;52.560;13.566;2023-03-26T17:52:18;99366.91;;;9.62;69.52
5679;BME280;2862;52.560;13.566;2023-03-26T18:02:32;99373.56;;;9.57;69.15
5679;BME280;2862;52.560;13.566;2023-03-26T18:12:50;99375.03;;;9.34;69.29
5679;BME280;2862;52.560;13.566;2023-03-26T18:22:57;99378.47;;;9.09;67.92
5679;BME280;2862;52.560;13.566;2023-03-26T18:33:03;99376.94;;;9.06;66.84
5679;BME280;2862;52.560;13.566;2023-03-26T18:43:14;99386.22;;;9.02;66.27
5679;BME280;2862;52.560;13.566;2023-03-26T18:53:28;99399.94;;;8.62;65.85
5679;BME280;2862;52.560;13.566;2023-03-26T19:03:33;99399.56;;;8.47;66.71
5679;BME280;2862;52.560;13.566;2023-03-26T19:13:39;99396.66;;;8.31;67.33
5679;BME280;2862;52.560;13.566;2023-03-26T19:23:45;99398.53;;;8.20;67.14
5679;BME280;2862;52.560;13.566;2023-03-26T19:33:56;99390.63;;;7.91;68.58
5679;BME280;2862;52.560;13.566;2023-03-26T19:44:00;99406.44;;;7.73;68.40
5679;BME280;2862;52.560;13.566;2023-03-26T19:54:12;99405.75;;;7.62;68.81
5679;BME280;2862;52.560;13.566;2023-03-26T20:04:16;99424.94;;;7.56;68.70
5679;BME280;2862;52.560;13.566;2023-03-26T20:14:20;99438.09;;;7.28;69.81
5679;BME280;2862;52.560;13.566;2023-03-26T20:24:26;99451.47;;;6.98;69.70
5679;BME280;2862;52.560;13.566;2023-03-26T20:34:31;99460.53;;;6.85;70.16
5679;BME280;2862;52.560;13.566;2023-03-26T20:44:34;99472.72;;;6.57;70.02
5679;BME280;2862;52.560;13.566;2023-03-26T20:54:39;99481.53;;;6.58;69.98
5679;BME280;2862;52.560;13.566;2023-03-26T21:04:42;99479.50;;;6.71;69.50
5679;BME280;2862;52.560;13.566;2023-03-26T21:14:49;99497.78;;;6.64;68.84
5679;BME280;2862;52.560;13.566;2023-03-26T21:25:00;99504.88;;;6.54;68.09
5679;BME280;2862;52.560;13.566;2023-03-26T21:35:08;99515.69;;;6.42;68.54
5679;BME280;2862;52.560;13.566;2023-03-26T21:45:12;99504.22;;;6.41;68.02
5679;BME280;2862;52.560;13.566;2023-03-26T21:55:18;99524.00;;;6.27;68.07
5679;BME280;2862;52.560;13.566;2023-03-26T22:05:26;99515.13;;;6.17;68.50
5679;BME280;2862;52.560;13.566;2023-03-26T22:15:32;99530.06;;;6.18;68.24
5679;BME280;2862;52.560;13.566;2023-03-26T22:25:37;99536.09;;;5.99;69.94
5679;BME280;2862;52.560;13.566;2023-03-26T22:35:42;99537.25;;;5.74;70.64
5679;BME280;2862;52.560;13.566;2023-03-26T22:45:48;99546.91;;;5.64;72.17
5679;BME280;2862;52.560;13.566;2023-03-26T22:55:52;99546.38;;;5.38;73.25
5679;BME280;2862;52.560;13.566;2023-03-26T23:05:57;99557.59;;;5.30;73.29
5679;BME280;2862;52.560;13.566;2023-03-26T23:16:02;99574.72;;;5.04;73.74
5679;BME280;2862;52.560;13.566;2023-03-26T23:26:06;99576.03;;;4.98;73.95
5679;BME280;2862;52.560;13.566;2023-03-26T23:36:11;99600.13;;;4.84;74.81
5679;BME280;2862;52.560;13.566;2023-03-26T23:46:15;99609.50;;;4.77;75.64
5679;BME280;2862;52.560;13.566;2023-03-26T23:56:19;99629.69;;;4.67;75.92
